createdAt,value
2019-04-10T00:00:00.900Z,0
2019-04-10T00:01:01.453Z,0
2019-04-10T00:02:01.481Z,0
2019-04-10T00:03:01.999Z,0
2019-04-10T00:04:00.892Z,0
2019-04-10T00:05:01.229Z,0
2019-04-10T00:06:00.906Z,0
2019-04-10T00:07:08.397Z,0
2019-04-10T00:08:01.874Z,0
2019-04-10T00:09:00.949Z,0
2019-04-10T00:10:00.894Z,0
2019-04-10T00:11:00.839Z,0
2019-04-10T00:12:01.018Z,0
2019-04-10T00:13:00.841Z,0
2019-04-10T00:14:00.897Z,0
2019-04-10T00:15:00.954Z,0
2019-04-10T00:16:00.842Z,0
2019-04-10T00:17:00.902Z,0
2019-04-10T00:18:01.866Z,0
2019-04-10T00:19:00.831Z,0
2019-04-10T00:20:00.849Z,0
2019-04-10T00:21:00.928Z,0
2019-04-10T00:22:02.650Z,0
2019-04-10T00:23:00.904Z,0
2019-04-10T00:24:01.775Z,0
2019-04-10T00:25:00.908Z,0
2019-04-10T00:26:01.431Z,0
2019-04-10T00:27:01.821Z,0
2019-04-10T00:28:01.201Z,0
2019-04-10T00:29:00.834Z,0
2019-04-10T00:30:00.903Z,0
2019-04-10T00:31:01.929Z,0
2019-04-10T00:32:02.168Z,0
2019-04-10T00:33:00.917Z,0
2019-04-10T00:34:01.092Z,0
2019-04-10T00:35:00.919Z,0
2019-04-10T00:36:01.599Z,0
2019-04-10T00:37:01.753Z,0
2019-04-10T00:38:01.722Z,0
2019-04-10T00:39:00.858Z,0
2019-04-10T00:40:01.253Z,0
2019-04-10T00:41:00.917Z,0
2019-04-10T00:42:00.956Z,0
2019-04-10T00:43:00.920Z,0
2019-04-10T00:44:01.452Z,0
2019-04-10T00:45:02.018Z,0
2019-04-10T00:46:01.947Z,0
2019-04-10T00:47:00.819Z,0
2019-04-10T00:48:01.678Z,0
2019-04-10T00:49:00.926Z,0
2019-04-10T00:50:00.873Z,0
2019-04-10T00:51:01.281Z,0
2019-04-10T00:52:00.872Z,0
2019-04-10T00:53:00.984Z,0
2019-04-10T00:54:01.468Z,0
2019-04-10T00:55:01.515Z,0
2019-04-10T00:56:01.887Z,0
2019-04-10T00:57:01.082Z,0
2019-04-10T00:58:01.594Z,0
2019-04-10T00:59:01.749Z,0
2019-04-10T01:00:01.014Z,0
2019-04-10T01:01:00.933Z,0
2019-04-10T01:02:00.862Z,0
2019-04-10T01:03:00.939Z,0
2019-04-10T01:04:00.924Z,0
2019-04-10T01:05:00.862Z,0
2019-04-10T01:06:01.765Z,0
2019-04-10T01:07:00.877Z,0
2019-04-10T01:08:00.876Z,0
2019-04-10T01:09:01.390Z,0
2019-04-10T01:10:02.053Z,0
2019-04-10T01:11:01.116Z,0
2019-04-10T01:12:00.940Z,0
2019-04-10T01:13:00.874Z,0
2019-04-10T01:14:01.213Z,0
2019-04-10T01:15:00.893Z,0
2019-04-10T01:16:00.932Z,0
2019-04-10T01:17:02.055Z,0
2019-04-10T01:18:00.944Z,0
2019-04-10T01:19:01.783Z,0
2019-04-10T01:20:00.878Z,0
2019-04-10T01:21:01.952Z,0
2019-04-10T01:22:01.074Z,0
2019-04-10T01:23:00.956Z,0
2019-04-10T01:24:01.449Z,0
2019-04-10T01:25:02.029Z,0
2019-04-10T01:26:01.090Z,0
2019-04-10T01:27:01.298Z,0
2019-04-10T01:28:00.951Z,0
2019-04-10T01:29:00.950Z,0
2019-04-10T01:30:02.222Z,0
2019-04-10T01:31:00.969Z,0
2019-04-10T01:32:01.602Z,0
2019-04-10T01:33:01.015Z,0
2019-04-10T01:34:01.099Z,0
2019-04-10T01:35:00.902Z,0
2019-04-10T01:36:00.962Z,0
2019-04-10T01:37:00.889Z,0
2019-04-10T01:38:03.950Z,0
2019-04-10T01:39:02.035Z,0
2019-04-10T01:40:00.960Z,0
2019-04-10T01:41:01.559Z,0
2019-04-10T01:42:00.963Z,0
2019-04-10T01:43:08.322Z,0
2019-04-10T01:44:01.457Z,0
2019-04-10T01:45:00.898Z,0
2019-04-10T01:46:02.003Z,0
2019-04-10T01:47:00.907Z,0
2019-04-10T01:48:01.655Z,0
2019-04-10T01:49:01.654Z,0
2019-04-10T01:50:00.913Z,0
2019-04-10T01:51:01.191Z,0
2019-04-10T01:52:00.963Z,0
2019-04-10T01:53:01.642Z,0
2019-04-10T01:54:00.909Z,0
2019-04-10T01:55:03.245Z,0
2019-04-10T01:56:00.927Z,0
2019-04-10T01:57:00.912Z,0
2019-04-10T01:58:01.010Z,0
2019-04-10T01:59:01.361Z,0
2019-04-10T02:00:00.898Z,0
2019-04-10T02:01:01.844Z,0
2019-04-10T02:02:01.078Z,0
2019-04-10T02:03:01.410Z,0
2019-04-10T02:04:00.977Z,0
2019-04-10T02:05:00.899Z,0
2019-04-10T02:06:01.069Z,0
2019-04-10T02:07:01.840Z,0
2019-04-10T02:08:07.925Z,0
2019-04-10T02:09:00.970Z,0
2019-04-10T02:10:01.613Z,0
2019-04-10T02:11:00.977Z,0
2019-04-10T02:12:01.977Z,0
2019-04-10T02:13:01.273Z,0
2019-04-10T02:14:00.899Z,0
2019-04-10T02:15:00.913Z,0
2019-04-10T02:16:00.974Z,0
2019-04-10T02:17:00.978Z,0
2019-04-10T02:18:01.271Z,0
2019-04-10T02:19:01.686Z,0
2019-04-10T02:20:00.991Z,0
2019-04-10T02:21:01.198Z,0
2019-04-10T02:22:00.939Z,0
2019-04-10T02:23:01.712Z,0
2019-04-10T02:24:00.990Z,0
2019-04-10T02:25:01.016Z,0
2019-04-10T02:26:01.162Z,0
2019-04-10T02:27:01.006Z,0
2019-04-10T02:28:00.924Z,0
2019-04-10T02:29:01.740Z,0
2019-04-10T02:30:01.236Z,0
2019-04-10T02:31:02.716Z,0
2019-04-10T02:32:02.093Z,0
2019-04-10T02:33:02.262Z,0
2019-04-10T02:34:01.544Z,0
2019-04-10T02:35:01.273Z,0
2019-04-10T02:36:01.466Z,0
2019-04-10T02:37:02.377Z,0
2019-04-10T02:38:22.854Z,0
2019-04-10T02:39:13.748Z,0
2019-04-10T02:40:03.647Z,0
2019-04-10T02:41:01.672Z,0
2019-04-10T02:42:02.663Z,0
2019-04-10T02:43:01.016Z,0
2019-04-10T02:44:02.355Z,0
2019-04-10T02:45:02.294Z,0
2019-04-10T02:46:02.140Z,0
2019-04-10T02:47:02.117Z,0
2019-04-10T02:48:01.726Z,0
2019-04-10T02:49:01.021Z,0
2019-04-10T02:50:03.262Z,0
2019-04-10T02:51:01.915Z,0
2019-04-10T02:52:01.064Z,0
2019-04-10T02:53:01.436Z,0
2019-04-10T02:54:02.378Z,0
2019-04-10T02:55:02.026Z,0
2019-04-10T02:56:01.026Z,0
2019-04-10T02:57:01.157Z,0
2019-04-10T02:58:02.454Z,0
2019-04-10T02:59:02.663Z,0
2019-04-10T03:00:03.743Z,0
2019-04-10T03:01:01.397Z,0
2019-04-10T03:02:02.351Z,0
2019-04-10T03:03:01.426Z,0
2019-04-10T03:04:01.422Z,0
2019-04-10T03:05:01.369Z,0
2019-04-10T03:06:02.503Z,0
2019-04-10T03:07:02.074Z,0
2019-04-10T03:08:01.118Z,0
2019-04-10T03:09:14.452Z,0
2019-04-10T03:10:12.614Z,0
2019-04-10T03:11:04.153Z,0
2019-04-10T03:12:01.212Z,0
2019-04-10T03:13:02.220Z,0
2019-04-10T03:14:01.676Z,0
2019-04-10T03:15:01.228Z,0
2019-04-10T03:16:01.026Z,0
2019-04-10T03:17:01.957Z,0
2019-04-10T03:18:01.022Z,0
2019-04-10T03:19:01.158Z,0
2019-04-10T03:20:01.508Z,0
2019-04-10T03:21:00.974Z,0
2019-04-10T03:22:01.820Z,0
2019-04-10T03:23:01.029Z,0
2019-04-10T03:24:02.058Z,0
2019-04-10T03:25:00.964Z,0
2019-04-10T03:26:01.453Z,0
2019-04-10T03:27:01.749Z,0
2019-04-10T03:28:00.973Z,0
2019-04-10T03:29:00.965Z,0
2019-04-10T03:30:00.971Z,0
2019-04-10T03:31:02.953Z,0
2019-04-10T03:32:02.091Z,0
2019-04-10T03:33:05.855Z,0
2019-04-10T03:34:03.329Z,0
2019-04-10T03:35:00.981Z,0
2019-04-10T03:36:01.043Z,0
2019-04-10T03:37:01.775Z,0
2019-04-10T03:38:01.520Z,0
2019-04-10T03:39:04.844Z,0
2019-04-10T03:40:00.967Z,0
2019-04-10T03:41:02.010Z,0
2019-04-10T03:42:00.983Z,0
2019-04-10T03:43:01.492Z,0
2019-04-10T03:44:00.985Z,0
2019-04-10T03:45:01.183Z,0
2019-04-10T03:46:01.299Z,0
2019-04-10T03:47:01.042Z,0
2019-04-10T03:48:01.825Z,0
2019-04-10T03:49:01.281Z,0
2019-04-10T03:50:01.000Z,0
2019-04-10T03:51:01.059Z,0
2019-04-10T03:52:01.089Z,0
2019-04-10T03:53:02.068Z,0
2019-04-10T03:54:01.064Z,0
2019-04-10T03:55:00.999Z,0
2019-04-10T03:56:01.269Z,0
2019-04-10T03:57:01.071Z,0
2019-04-10T03:58:01.069Z,0
2019-04-10T03:59:02.070Z,4
2019-04-10T04:00:01.563Z,4
2019-04-10T04:01:01.066Z,4
2019-04-10T04:02:01.067Z,0
2019-04-10T04:03:01.089Z,4
2019-04-10T04:04:01.499Z,4
2019-04-10T04:05:01.018Z,4
2019-04-10T04:06:01.642Z,8
2019-04-10T04:07:01.025Z,4
2019-04-10T04:08:01.283Z,8
2019-04-10T04:09:07.329Z,12
2019-04-10T04:10:02.474Z,12
2019-04-10T04:11:01.496Z,16
2019-04-10T04:12:02.198Z,16
2019-04-10T04:13:01.538Z,24
2019-04-10T04:14:01.002Z,28
2019-04-10T04:15:02.218Z,28
2019-04-10T04:16:02.189Z,40
2019-04-10T04:17:01.850Z,44
2019-04-10T04:18:01.030Z,56
2019-04-10T04:19:01.720Z,64
2019-04-10T04:20:01.005Z,72
2019-04-10T04:21:01.549Z,88
2019-04-10T04:22:01.067Z,104
2019-04-10T04:23:01.400Z,120
2019-04-10T04:24:01.423Z,144
2019-04-10T04:25:01.001Z,168
2019-04-10T04:26:01.078Z,188
2019-04-10T04:27:01.008Z,224
2019-04-10T04:28:01.145Z,256
2019-04-10T04:29:02.039Z,292
2019-04-10T04:30:01.006Z,328
2019-04-10T04:31:01.091Z,376
2019-04-10T04:32:01.234Z,424
2019-04-10T04:33:01.087Z,476
2019-04-10T04:34:01.923Z,528
2019-04-10T04:35:01.020Z,588
2019-04-10T04:36:01.998Z,652
2019-04-10T04:37:01.090Z,720
2019-04-10T04:38:01.050Z,788
2019-04-10T04:39:12.718Z,864
2019-04-10T04:40:01.099Z,944
2019-04-10T04:41:01.035Z,1032
2019-04-10T04:42:01.024Z,1120
2019-04-10T04:43:01.023Z,1220
2019-04-10T04:44:01.794Z,1320
2019-04-10T04:45:01.100Z,1424
2019-04-10T04:46:01.233Z,1540
2019-04-10T04:47:01.236Z,1648
2019-04-10T04:48:01.848Z,1772
2019-04-10T04:49:02.136Z,1896
2019-04-10T04:50:01.469Z,2020
2019-04-10T04:51:01.319Z,2148
2019-04-10T04:52:01.028Z,2288
2019-04-10T04:53:01.090Z,2416
2019-04-10T04:54:01.093Z,2552
2019-04-10T04:55:01.927Z,2688
2019-04-10T04:56:01.745Z,2840
2019-04-10T04:57:01.029Z,2996
2019-04-10T04:58:01.977Z,3152
2019-04-10T04:59:01.490Z,3312
2019-04-10T05:00:01.218Z,3488
2019-04-10T05:01:02.033Z,3652
2019-04-10T05:02:01.327Z,3808
2019-04-10T05:03:01.898Z,3936
2019-04-10T05:04:01.021Z,4100
2019-04-10T05:05:01.118Z,4256
2019-04-10T05:06:01.018Z,4420
2019-04-10T05:07:01.030Z,4592
2019-04-10T05:08:02.949Z,4768
2019-04-10T05:09:01.104Z,4940
2019-04-10T05:10:02.088Z,5120
2019-04-10T05:11:02.159Z,5292
2019-04-10T05:12:01.108Z,5464
2019-04-10T05:13:01.995Z,5640
2019-04-10T05:14:01.110Z,5824
2019-04-10T05:15:01.125Z,6012
2019-04-10T05:16:01.047Z,6196
2019-04-10T05:17:01.067Z,6356
2019-04-10T05:18:02.011Z,6540
2019-04-10T05:19:01.743Z,6720
2019-04-10T05:20:01.049Z,6896
2019-04-10T05:21:01.069Z,7064
2019-04-10T05:22:01.671Z,7240
2019-04-10T05:23:02.054Z,7408
2019-04-10T05:24:01.108Z,7584
2019-04-10T05:25:01.078Z,7776
2019-04-10T05:26:01.037Z,7976
2019-04-10T05:27:01.251Z,8168
2019-04-10T05:28:01.584Z,8368
2019-04-10T05:29:01.026Z,8556
2019-04-10T05:30:02.358Z,8744
2019-04-10T05:31:01.151Z,8956
2019-04-10T05:32:01.123Z,9152
2019-04-10T05:33:01.974Z,9356
2019-04-10T05:34:01.059Z,9572
2019-04-10T05:35:03.983Z,9772
2019-04-10T05:36:01.362Z,9988
2019-04-10T05:37:01.078Z,10172
2019-04-10T05:38:01.092Z,10372
2019-04-10T05:39:02.117Z,10564
2019-04-10T05:40:01.585Z,10744
2019-04-10T05:41:01.428Z,10916
2019-04-10T05:42:02.431Z,11108
2019-04-10T05:43:01.628Z,11304
2019-04-10T05:44:01.128Z,11488
2019-04-10T05:45:01.060Z,11640
2019-04-10T05:46:01.050Z,11788
2019-04-10T05:47:01.246Z,11952
2019-04-10T05:48:01.229Z,12140
2019-04-10T05:49:01.165Z,12432
2019-04-10T05:50:02.027Z,17108
2019-04-10T05:51:04.276Z,23936
2019-04-10T05:52:02.022Z,24672
2019-04-10T05:53:02.079Z,22048
2019-04-10T05:54:02.202Z,19936
2019-04-10T05:55:02.199Z,21312
2019-04-10T05:56:01.470Z,24800
2019-04-10T05:57:01.240Z,25376
2019-04-10T05:58:01.639Z,24064
2019-04-10T05:59:01.079Z,23872
2019-04-10T06:00:01.081Z,24384
2019-04-10T06:01:01.132Z,24576
2019-04-10T06:02:01.149Z,24416
2019-04-10T06:03:01.137Z,23552
2019-04-10T06:04:01.063Z,23136
2019-04-10T06:05:02.232Z,23968
2019-04-10T06:06:01.243Z,25568
2019-04-10T06:07:01.085Z,26944
2019-04-10T06:08:01.368Z,27616
2019-04-10T06:09:01.085Z,27488
2019-04-10T06:10:05.015Z,26944
2019-04-10T06:11:01.276Z,25536
2019-04-10T06:12:03.379Z,26240
2019-04-10T06:13:01.018Z,31392
2019-04-10T06:14:01.197Z,35552
2019-04-10T06:15:02.340Z,37664
2019-04-10T06:16:01.563Z,37248
2019-04-10T06:17:04.005Z,34624
2019-04-10T06:18:01.070Z,35296
2019-04-10T06:19:01.853Z,36288
2019-04-10T06:20:01.074Z,35840
2019-04-10T06:21:01.089Z,36320
2019-04-10T06:22:01.173Z,38368
2019-04-10T06:23:01.312Z,38080
2019-04-10T06:24:01.107Z,35200
2019-04-10T06:25:01.166Z,29440
2019-04-10T06:26:03.462Z,25120
2019-04-10T06:27:01.889Z,42208
2019-04-10T06:28:01.186Z,55840
2019-04-10T06:29:02.299Z,52384
2019-04-10T06:30:01.902Z,77824
2019-04-10T06:31:01.146Z,69984
2019-04-10T06:32:01.205Z,40960
2019-04-10T06:33:02.079Z,47072
2019-04-10T06:34:01.123Z,40160
2019-04-10T06:35:01.923Z,41312
2019-04-10T06:36:01.127Z,43328
2019-04-10T06:37:01.898Z,44608
2019-04-10T06:38:02.343Z,44768
2019-04-10T06:39:01.161Z,44352
2019-04-10T06:40:10.670Z,43328
2019-04-10T06:41:02.171Z,42208
2019-04-10T06:42:02.380Z,41664
2019-04-10T06:43:01.124Z,42176
2019-04-10T06:44:01.483Z,44320
2019-04-10T06:45:01.140Z,46944
2019-04-10T06:46:01.194Z,49216
2019-04-10T06:47:02.165Z,50688
2019-04-10T06:48:01.168Z,51136
2019-04-10T06:49:01.169Z,50592
2019-04-10T06:50:02.468Z,49120
2019-04-10T06:51:02.088Z,47008
2019-04-10T06:52:01.884Z,45120
2019-04-10T06:53:01.168Z,44032
2019-04-10T06:54:06.978Z,45120
2019-04-10T06:55:01.186Z,48000
2019-04-10T06:56:01.121Z,51424
2019-04-10T06:57:01.191Z,54656
2019-04-10T06:58:01.135Z,56608
2019-04-10T06:59:01.443Z,57312
2019-04-10T07:00:02.363Z,57024
2019-04-10T07:01:01.782Z,55872
2019-04-10T07:02:13.940Z,54848
2019-04-10T07:03:01.121Z,54112
2019-04-10T07:04:06.451Z,53824
2019-04-10T07:05:05.702Z,54752
2019-04-10T07:06:09.772Z,55904
2019-04-10T07:07:08.897Z,57056
2019-04-10T07:08:10.861Z,58400
2019-04-10T07:09:01.289Z,59296
2019-04-10T07:10:02.283Z,60928
2019-04-10T07:11:06.040Z,62720
2019-04-10T07:12:03.043Z,62880
2019-04-10T07:13:04.339Z,63456
2019-04-10T07:14:01.581Z,64704
2019-04-10T07:15:02.204Z,65088
2019-04-10T07:16:02.183Z,65440
2019-04-10T07:17:05.297Z,64224
2019-04-10T07:18:01.071Z,62688
2019-04-10T07:19:04.246Z,62240
2019-04-10T07:20:01.942Z,62976
2019-04-10T07:21:02.002Z,63744
2019-04-10T07:22:02.048Z,64480
2019-04-10T07:23:01.102Z,65152
2019-04-10T07:24:05.386Z,67040
2019-04-10T07:25:01.208Z,68448
2019-04-10T07:26:01.858Z,70080
2019-04-10T07:27:03.366Z,71936
2019-04-10T07:28:01.858Z,72864
2019-04-10T07:29:01.212Z,74016
2019-04-10T07:30:01.588Z,73120
2019-04-10T07:31:05.284Z,71104
2019-04-10T07:32:01.211Z,69408
2019-04-10T07:33:01.433Z,67904
2019-04-10T07:34:01.456Z,59456
2019-04-10T07:35:02.871Z,65376
2019-04-10T07:36:04.326Z,47552
2019-04-10T07:37:02.267Z,53568
2019-04-10T07:38:01.432Z,52896
2019-04-10T07:39:01.425Z,81376
2019-04-10T07:40:04.225Z,48096
2019-04-10T07:41:01.177Z,47008
2019-04-10T07:42:02.078Z,61056
2019-04-10T07:43:02.125Z,73344
2019-04-10T07:44:01.725Z,49344
2019-04-10T07:45:01.151Z,78816
2019-04-10T07:46:01.216Z,48032
2019-04-10T07:47:01.132Z,40960
2019-04-10T07:48:02.429Z,81248
2019-04-10T07:49:01.152Z,46720
2019-04-10T07:50:02.136Z,83552
2019-04-10T07:51:01.140Z,81568
2019-04-10T07:52:02.495Z,66592
2019-04-10T07:53:01.960Z,59744
2019-04-10T07:54:01.918Z,75456
2019-04-10T07:55:01.217Z,81088
2019-04-10T07:56:06.334Z,58048
2019-04-10T07:57:02.035Z,89632
2019-04-10T07:58:01.146Z,90304
2019-04-10T07:59:01.214Z,88832
2019-04-10T08:00:01.228Z,87808
2019-04-10T08:01:01.227Z,88992
2019-04-10T08:02:02.388Z,91904
2019-04-10T08:03:01.147Z,91648
2019-04-10T08:04:01.899Z,91136
2019-04-10T08:05:02.391Z,96640
2019-04-10T08:06:02.316Z,93504
2019-04-10T08:07:01.227Z,92576
2019-04-10T08:08:01.150Z,85472
2019-04-10T08:09:01.327Z,86624
2019-04-10T08:10:01.451Z,88352
2019-04-10T08:11:01.582Z,88832
2019-04-10T08:12:01.156Z,88384
2019-04-10T08:13:02.275Z,89920
2019-04-10T08:14:01.288Z,91744
2019-04-10T08:15:01.162Z,92000
2019-04-10T08:16:01.196Z,96000
2019-04-10T08:17:01.131Z,93120
2019-04-10T08:18:02.425Z,92832
2019-04-10T08:19:01.907Z,92768
2019-04-10T08:20:01.628Z,95264
2019-04-10T08:21:01.139Z,93856
2019-04-10T08:22:01.265Z,92160
2019-04-10T08:23:01.571Z,91296
2019-04-10T08:24:01.484Z,93376
2019-04-10T08:25:02.289Z,93472
2019-04-10T08:26:01.141Z,99584
2019-04-10T08:27:01.276Z,100512
2019-04-10T08:28:01.189Z,101408
2019-04-10T08:29:01.656Z,101312
2019-04-10T08:30:01.282Z,100256
2019-04-10T08:31:01.182Z,98048
2019-04-10T08:32:01.387Z,96736
2019-04-10T08:33:02.785Z,32736
2019-04-10T08:34:01.270Z,95168
2019-04-10T08:35:01.375Z,98688
2019-04-10T08:36:01.247Z,103616
2019-04-10T08:37:01.729Z,106368
2019-04-10T08:38:01.419Z,102560
2019-04-10T08:39:01.247Z,102880
2019-04-10T08:40:01.155Z,42912
2019-04-10T08:41:01.252Z,31232
2019-04-10T08:42:02.077Z,96288
2019-04-10T08:43:02.081Z,91840
2019-04-10T08:44:02.160Z,100512
2019-04-10T08:45:01.180Z,99840
2019-04-10T08:46:02.006Z,102880
2019-04-10T08:47:02.314Z,102368
2019-04-10T08:48:01.487Z,101664
2019-04-10T08:49:01.264Z,106848
2019-04-10T08:50:01.494Z,37856
2019-04-10T08:51:01.199Z,117984
2019-04-10T08:52:01.330Z,118048
2019-04-10T08:53:02.093Z,117344
2019-04-10T08:54:01.282Z,108224
2019-04-10T08:55:01.900Z,94464
2019-04-10T08:56:02.275Z,71168
2019-04-10T08:57:01.201Z,108704
2019-04-10T08:58:01.274Z,110272
2019-04-10T08:59:01.356Z,103488
2019-04-10T09:00:02.542Z,50848
2019-04-10T09:01:01.263Z,61856
2019-04-10T09:02:01.965Z,108736
2019-04-10T09:03:02.355Z,69568
2019-04-10T09:04:01.563Z,105504
2019-04-10T09:05:01.603Z,43520
2019-04-10T09:06:01.268Z,47104
2019-04-10T09:07:03.657Z,77600
2019-04-10T09:08:02.353Z,124928
2019-04-10T09:09:01.442Z,110816
2019-04-10T09:10:01.842Z,57088
2019-04-10T09:11:01.199Z,55808
2019-04-10T09:12:01.853Z,91616
2019-04-10T09:13:01.168Z,61120
2019-04-10T09:14:01.218Z,64000
2019-04-10T09:15:01.605Z,78912
2019-04-10T09:16:02.412Z,118304
2019-04-10T09:17:01.228Z,60864
2019-04-10T09:18:01.988Z,89184
2019-04-10T09:19:01.430Z,129472
2019-04-10T09:20:02.550Z,57184
2019-04-10T09:21:01.260Z,74080
2019-04-10T09:22:01.301Z,59616
2019-04-10T09:23:26.520Z,89056
2019-04-10T09:24:01.292Z,66272
2019-04-10T09:25:01.312Z,92256
2019-04-10T09:26:01.830Z,95360
2019-04-10T09:27:01.226Z,51360
2019-04-10T09:28:02.238Z,115456
2019-04-10T09:29:01.225Z,49056
2019-04-10T09:30:01.225Z,96384
2019-04-10T09:31:01.764Z,102624
2019-04-10T09:32:02.172Z,112608
2019-04-10T09:33:05.564Z,121504
2019-04-10T09:34:01.273Z,120704
2019-04-10T09:35:02.482Z,114080
2019-04-10T09:36:01.232Z,104928
2019-04-10T09:37:01.870Z,106592
2019-04-10T09:38:02.121Z,122272
2019-04-10T09:39:01.305Z,57280
2019-04-10T09:40:01.310Z,110976
2019-04-10T09:41:01.512Z,118944
2019-04-10T09:42:01.429Z,117184
2019-04-10T09:43:01.226Z,115328
2019-04-10T09:44:02.359Z,116064
2019-04-10T09:45:02.586Z,120160
2019-04-10T09:46:02.231Z,124032
2019-04-10T09:47:02.080Z,127776
2019-04-10T09:48:01.238Z,129536
2019-04-10T09:49:01.299Z,130112
2019-04-10T09:50:02.309Z,128416
2019-04-10T09:51:01.382Z,127264
2019-04-10T09:52:01.301Z,129600
2019-04-10T09:53:02.096Z,127104
2019-04-10T09:54:01.519Z,126208
2019-04-10T09:55:01.243Z,122368
2019-04-10T09:56:01.249Z,122080
2019-04-10T09:57:01.315Z,123776
2019-04-10T09:58:02.124Z,125216
2019-04-10T09:59:01.234Z,131680
2019-04-10T10:00:01.309Z,134752
2019-04-10T10:01:01.656Z,139904
2019-04-10T10:02:01.306Z,138784
2019-04-10T10:03:01.553Z,46368
2019-04-10T10:04:01.343Z,87584
2019-04-10T10:05:02.237Z,131136
2019-04-10T10:06:01.785Z,46048
2019-04-10T10:07:01.956Z,131648
2019-04-10T10:08:02.236Z,139136
2019-04-10T10:09:01.244Z,140544
2019-04-10T10:10:01.532Z,141536
2019-04-10T10:11:01.811Z,136032
2019-04-10T10:12:01.254Z,128448
2019-04-10T10:13:01.315Z,125312
2019-04-10T10:14:01.916Z,124768
2019-04-10T10:15:02.500Z,126176
2019-04-10T10:16:01.253Z,129216
2019-04-10T10:17:01.316Z,126368
2019-04-10T10:18:01.354Z,43008
2019-04-10T10:19:01.567Z,136512
2019-04-10T10:20:01.800Z,136800
2019-04-10T10:21:01.926Z,134272
2019-04-10T10:22:03.555Z,132256
2019-04-10T10:23:01.417Z,138720
2019-04-10T10:24:02.358Z,140576
2019-04-10T10:25:01.288Z,142144
2019-04-10T10:26:01.728Z,144288
2019-04-10T10:27:01.908Z,145792
2019-04-10T10:28:01.295Z,148128
2019-04-10T10:29:01.270Z,148704
2019-04-10T10:30:02.195Z,151040
2019-04-10T10:31:01.928Z,150272
2019-04-10T10:32:02.472Z,148928
2019-04-10T10:33:01.504Z,48320
2019-04-10T10:34:01.918Z,44736
2019-04-10T10:35:01.306Z,50400
2019-04-10T10:36:01.301Z,61792
2019-04-10T10:37:03.527Z,56672
2019-04-10T10:38:01.288Z,87776
2019-04-10T10:39:07.078Z,145664
2019-04-10T10:40:01.363Z,148928
2019-04-10T10:41:01.273Z,146976
2019-04-10T10:42:01.269Z,150912
2019-04-10T10:43:02.281Z,156032
2019-04-10T10:44:01.250Z,156416
2019-04-10T10:45:01.276Z,154656
2019-04-10T10:46:01.261Z,151360
2019-04-10T10:47:02.064Z,151232
2019-04-10T10:48:01.362Z,147552
2019-04-10T10:49:02.288Z,44192
2019-04-10T10:50:01.278Z,43296
2019-04-10T10:52:01.482Z,93568
2019-04-10T10:53:01.307Z,46144
2019-04-10T10:54:02.640Z,45024
2019-04-10T10:55:01.233Z,94528
2019-04-10T10:56:02.247Z,44640
2019-04-10T10:57:01.244Z,143552
2019-04-10T10:58:01.684Z,148096
2019-04-10T10:59:01.216Z,93056
2019-04-10T11:00:02.143Z,140832
2019-04-10T11:01:01.307Z,53184
2019-04-10T11:02:02.369Z,83808
2019-04-10T11:03:02.258Z,147616
2019-04-10T11:04:02.518Z,78016
2019-04-10T11:06:02.424Z,153952
2019-04-10T11:07:02.559Z,90048
2019-04-10T11:08:01.315Z,101696
2019-04-10T11:09:01.979Z,143712
2019-04-10T11:10:01.507Z,46272
2019-04-10T11:11:01.375Z,56352
2019-04-10T11:12:01.736Z,49728
2019-04-10T11:13:02.312Z,64288
2019-04-10T11:14:01.329Z,63616
2019-04-10T11:15:02.261Z,47776
2019-04-10T11:16:04.262Z,46720
2019-04-10T11:17:01.481Z,61792
2019-04-10T11:18:02.029Z,157824
2019-04-10T11:19:02.602Z,158272
2019-04-10T11:20:02.301Z,55072
2019-04-10T11:21:05.853Z,161440
2019-04-10T11:22:01.312Z,126240
2019-04-10T11:23:01.741Z,122336
2019-04-10T11:24:02.904Z,137024
2019-04-10T11:25:01.573Z,146688
2019-04-10T11:26:02.179Z,152992
2019-04-10T11:27:02.756Z,56064
2019-04-10T11:28:01.313Z,57056
2019-04-10T11:29:01.601Z,131104
2019-04-10T11:30:03.046Z,63392
2019-04-10T11:31:01.811Z,85344
2019-04-10T11:32:01.830Z,148096
2019-04-10T11:33:02.532Z,109760
2019-04-10T11:34:02.787Z,88320
2019-04-10T11:35:03.278Z,106752
2019-04-10T11:36:01.527Z,45536
2019-04-10T11:37:16.787Z,39456
2019-04-10T11:38:03.382Z,37952
2019-04-10T11:39:12.915Z,39616
2019-04-10T11:40:02.129Z,56704
2019-04-10T11:41:02.793Z,77056
2019-04-10T11:42:01.902Z,140544
2019-04-10T11:43:04.716Z,146720
2019-04-10T11:44:02.731Z,144160
2019-04-10T11:45:01.739Z,138208
2019-04-10T11:46:02.677Z,135968
2019-04-10T11:47:02.949Z,135008
2019-04-10T11:48:02.343Z,83968
2019-04-10T11:49:02.553Z,133376
2019-04-10T11:50:03.965Z,135520
2019-04-10T11:51:02.948Z,133024
2019-04-10T11:52:03.038Z,140384
2019-04-10T11:53:02.182Z,132864
2019-04-10T11:54:03.957Z,136384
2019-04-10T11:55:10.256Z,129312
2019-04-10T11:56:05.261Z,82112
2019-04-10T11:57:04.171Z,134336
2019-04-10T11:58:01.386Z,140352
2019-04-10T11:59:02.258Z,145120
2019-04-10T12:00:04.215Z,146016
2019-04-10T12:01:04.064Z,140224
2019-04-10T12:03:01.465Z,137344
2019-04-10T12:04:02.691Z,131360
2019-04-10T12:05:08.662Z,136128
2019-04-10T12:06:04.330Z,135744
2019-04-10T12:07:02.140Z,130080
2019-04-10T12:08:28.071Z,127872
2019-04-10T12:09:19.338Z,130080
2019-04-10T12:12:01.528Z,138208
2019-04-10T12:13:01.902Z,134944
2019-04-10T12:14:01.330Z,123904
2019-04-10T12:15:01.929Z,115680
2019-04-10T12:16:01.330Z,127168
2019-04-10T12:17:01.403Z,51136
2019-04-10T12:18:02.292Z,43904
2019-04-10T12:19:01.346Z,40256
2019-04-10T12:20:01.416Z,42720
2019-04-10T12:21:01.919Z,47776
2019-04-10T12:22:01.353Z,129024
2019-04-10T12:23:01.437Z,123296
2019-04-10T12:24:01.377Z,126272
2019-04-10T12:25:01.424Z,137760
2019-04-10T12:26:01.360Z,143968
2019-04-10T12:27:02.432Z,144832
2019-04-10T12:28:01.437Z,141440
2019-04-10T12:29:02.534Z,132064
2019-04-10T12:30:01.327Z,125472
2019-04-10T12:31:01.789Z,126944
2019-04-10T12:32:01.437Z,129920
2019-04-10T12:33:01.434Z,129376
2019-04-10T12:34:01.537Z,125440
2019-04-10T12:35:01.557Z,135168
2019-04-10T12:36:02.410Z,138752
2019-04-10T12:37:01.437Z,144768
2019-04-10T12:38:06.249Z,148960
2019-04-10T12:39:01.364Z,148896
2019-04-10T12:40:01.486Z,98496
2019-04-10T12:41:01.445Z,81280
2019-04-10T12:42:01.330Z,71872
2019-04-10T12:43:01.442Z,152160
2019-04-10T12:44:01.448Z,137344
2019-04-10T12:45:01.962Z,138272
2019-04-10T12:46:02.376Z,90080
2019-04-10T12:47:01.700Z,98720
2019-04-10T12:48:02.100Z,62816
2019-04-10T12:49:02.828Z,105312
2019-04-10T12:50:01.376Z,85696
2019-04-10T12:51:01.473Z,99392
2019-04-10T12:52:02.333Z,140768
2019-04-10T12:53:01.390Z,140992
2019-04-10T12:54:02.515Z,134944
2019-04-10T12:55:01.954Z,130432
2019-04-10T12:56:01.984Z,127552
2019-04-10T12:57:02.385Z,122528
2019-04-10T12:58:09.551Z,128096
2019-04-10T12:59:01.470Z,125248
2019-04-10T13:00:04.570Z,118880
2019-04-10T13:01:02.502Z,119008
2019-04-10T13:02:01.459Z,114624
2019-04-10T13:03:01.451Z,114048
2019-04-10T13:04:01.452Z,116640
2019-04-10T13:05:01.387Z,72608
2019-04-10T13:06:01.854Z,99872
2019-04-10T13:07:01.455Z,46656
2019-04-10T13:08:12.063Z,117152
2019-04-10T13:09:07.800Z,119968
2019-04-10T13:10:02.582Z,115232
2019-04-10T13:11:02.463Z,108768
2019-04-10T13:12:01.454Z,113280
2019-04-10T13:13:01.951Z,108800
2019-04-10T13:14:02.189Z,66208
2019-04-10T13:15:01.391Z,116000
2019-04-10T13:16:01.557Z,114080
2019-04-10T13:17:01.389Z,120640
2019-04-10T13:18:01.396Z,121376
2019-04-10T13:19:01.403Z,71904
2019-04-10T13:20:01.839Z,59648
2019-04-10T13:21:02.117Z,140064
2019-04-10T13:22:02.069Z,138688
2019-04-10T13:23:01.336Z,134464
2019-04-10T13:24:01.498Z,129696
2019-04-10T13:25:01.784Z,123008
2019-04-10T13:26:05.435Z,46880
2019-04-10T13:27:01.897Z,42080